sensor_id;sensor_type;location;lat;lon;timestamp;P1;durP1;ratioP1;P2;durP2;ratioP2
10979;SDS011;5543;51.734;8.744;2023-02-04T00:00:31;4.53;;;1.88;;
10979;SDS011;5543;51.734;8.744;2023-02-04T00:03:03;2.70;;;1.55;;
10979;SDS011;5543;51.734;8.744;2023-02-04T00:05:31;12.13;;;2.83;;
10979;SDS011;5543;51.734;8.744;2023-02-04T00:07:59;1.58;;;1.02;;
10979;SDS011;5543;51.734;8.744;2023-02-04T00:10:29;12.02;;;3.67;;
10979;SDS011;5543;51.734;8.744;2023-02-04T00:12:59;8.77;;;2.08;;
10979;SDS011;5543;51.734;8.744;2023-02-04T00:15:28;5.30;;;1.60;;
10979;SDS011;5543;51.734;8.744;2023-02-04T00:17:56;9.10;;;2.80;;
10979;SDS011;5543;51.734;8.744;2023-02-04T00:20:24;15.75;;;3.10;;
10979;SDS011;5543;51.734;8.744;2023-02-04T00:22:52;13.27;;;2.45;;
10979;SDS011;5543;51.734;8.744;2023-02-04T00:25:20;5.63;;;1.95;;
10979;SDS011;5543;51.734;8.744;2023-02-04T00:27:49;4.90;;;1.27;;
10979;SDS011;5543;51.734;8.744;2023-02-04T00:30:18;2.60;;;1.73;;
10979;SDS011;5543;51.734;8.744;2023-02-04T00:32:46;4.75;;;1.92;;
10979;SDS011;5543;51.734;8.744;2023-02-04T00:35:14;8.88;;;1.50;;
10979;SDS011;5543;51.734;8.744;2023-02-04T00:37:42;5.55;;;1.73;;
10979;SDS011;5543;51.734;8.744;2023-02-04T00:40:11;10.75;;;2.13;;
10979;SDS011;5543;51.734;8.744;2023-02-04T00:42:39;6.22;;;1.88;;
10979;SDS011;5543;51.734;8.744;2023-02-04T00:45:09;4.05;;;1.65;;
10979;SDS011;5543;51.734;8.744;2023-02-04T00:47:38;3.42;;;1.40;;
10979;SDS011;5543;51.734;8.744;2023-02-04T00:50:07;6.72;;;1.83;;
10979;SDS011;5543;51.734;8.744;2023-02-04T00:52:35;5.78;;;1.65;;
10979;SDS011;5543;51.734;8.744;2023-02-04T00:55:03;7.30;;;3.50;;
10979;SDS011;5543;51.734;8.744;2023-02-04T00:57:33;18.38;;;2.38;;
10979;SDS011;5543;51.734;8.744;2023-02-04T01:00:01;6.03;;;1.75;;
10979;SDS011;5543;51.734;8.744;2023-02-04T01:02:30;3.08;;;1.58;;
10979;SDS011;5543;51.734;8.744;2023-02-04T01:04:59;5.55;;;2.10;;
10979;SDS011;5543;51.734;8.744;2023-02-04T01:07:27;5.32;;;1.58;;
10979;SDS011;5543;51.734;8.744;2023-02-04T01:09:55;5.68;;;2.15;;
10979;SDS011;5543;51.734;8.744;2023-02-04T01:12:23;8.93;;;2.13;;
10979;SDS011;5543;51.734;8.744;2023-02-04T01:14:53;3.33;;;1.55;;
10979;SDS011;5543;51.734;8.744;2023-02-04T01:17:21;1.67;;;1.50;;
10979;SDS011;5543;51.734;8.744;2023-02-04T01:19:50;7.50;;;1.38;;
10979;SDS011;5543;51.734;8.744;2023-02-04T01:22:18;8.55;;;2.17;;
10979;SDS011;5543;51.734;8.744;2023-02-04T01:24:47;4.40;;;1.52;;
10979;SDS011;5543;51.734;8.744;2023-02-04T01:27:15;8.05;;;2.40;;
10979;SDS011;5543;51.734;8.744;2023-02-04T01:29:44;6.72;;;1.27;;
10979;SDS011;5543;51.734;8.744;2023-02-04T01:32:12;5.05;;;1.75;;
10979;SDS011;5543;51.734;8.744;2023-02-04T01:34:40;4.47;;;1.77;;
10979;SDS011;5543;51.734;8.744;2023-02-04T01:37:09;3.30;;;1.80;;
10979;SDS011;5543;51.734;8.744;2023-02-04T01:39:37;11.52;;;3.70;;
10979;SDS011;5543;51.734;8.744;2023-02-04T01:42:05;14.90;;;2.65;;
10979;SDS011;5543;51.734;8.744;2023-02-04T01:44:33;4.72;;;1.88;;
10979;SDS011;5543;51.734;8.744;2023-02-04T01:47:02;5.03;;;1.50;;
10979;SDS011;5543;51.734;8.744;2023-02-04T01:49:30;10.02;;;3.42;;
10979;SDS011;5543;51.734;8.744;2023-02-04T01:51:58;15.60;;;2.75;;
10979;SDS011;5543;51.734;8.744;2023-02-04T01:54:28;29.17;;;3.70;;
10979;SDS011;5543;51.734;8.744;2023-02-04T01:56:56;8.98;;;2.60;;
10979;SDS011;5543;51.734;8.744;2023-02-04T01:59:24;2.88;;;1.45;;
10979;SDS011;5543;51.734;8.744;2023-02-04T02:01:53;5.25;;;1.48;;
10979;SDS011;5543;51.734;8.744;2023-02-04T02:04:23;3.28;;;1.35;;
10979;SDS011;5543;51.734;8.744;2023-02-04T02:06:57;3.58;;;2.45;;
10979;SDS011;5543;51.734;8.744;2023-02-04T02:09:28;9.65;;;2.50;;
10979;SDS011;5543;51.734;8.744;2023-02-04T02:11:57;17.75;;;2.67;;
10979;SDS011;5543;51.734;8.744;2023-02-04T02:14:27;6.70;;;2.92;;
10979;SDS011;5543;51.734;8.744;2023-02-04T02:16:56;15.73;;;2.55;;
10979;SDS011;5543;51.734;8.744;2023-02-04T02:19:25;6.95;;;1.60;;
10979;SDS011;5543;51.734;8.744;2023-02-04T02:21:57;5.78;;;2.42;;
10979;SDS011;5543;51.734;8.744;2023-02-04T02:24:32;10.10;;;1.60;;
10979;SDS011;5543;51.734;8.744;2023-02-04T02:27:02;11.93;;;2.72;;
10979;SDS011;5543;51.734;8.744;2023-02-04T02:29:33;3.95;;;1.15;;
10979;SDS011;5543;51.734;8.744;2023-02-04T02:32:02;5.50;;;2.65;;
10979;SDS011;5543;51.734;8.744;2023-02-04T02:34:31;4.25;;;1.40;;
10979;SDS011;5543;51.734;8.744;2023-02-04T02:37:00;6.53;;;2.03;;
10979;SDS011;5543;51.734;8.744;2023-02-04T02:39:29;7.00;;;1.30;;
10979;SDS011;5543;51.734;8.744;2023-02-04T02:41:59;5.30;;;1.73;;
10979;SDS011;5543;51.734;8.744;2023-02-04T02:44:27;8.27;;;2.58;;
10979;SDS011;5543;51.734;8.744;2023-02-04T02:46:56;4.47;;;2.10;;
10979;SDS011;5543;51.734;8.744;2023-02-04T02:49:25;5.57;;;1.38;;
10979;SDS011;5543;51.734;8.744;2023-02-04T02:51:55;6.30;;;1.58;;
10979;SDS011;5543;51.734;8.744;2023-02-04T02:54:23;4.15;;;1.52;;
10979;SDS011;5543;51.734;8.744;2023-02-04T02:56:56;4.75;;;1.70;;
10979;SDS011;5543;51.734;8.744;2023-02-04T02:59:25;6.10;;;1.05;;
10979;SDS011;5543;51.734;8.744;2023-02-04T03:01:54;5.90;;;1.73;;
10979;SDS011;5543;51.734;8.744;2023-02-04T03:04:24;10.85;;;1.70;;
10979;SDS011;5543;51.734;8.744;2023-02-04T03:06:54;10.77;;;1.90;;
10979;SDS011;5543;51.734;8.744;2023-02-04T03:09:22;6.15;;;1.25;;
10979;SDS011;5543;51.734;8.744;2023-02-04T03:11:52;4.05;;;2.13;;
10979;SDS011;5543;51.734;8.744;2023-02-04T03:14:22;8.15;;;2.78;;
10979;SDS011;5543;51.734;8.744;2023-02-04T03:16:51;3.40;;;1.70;;
10979;SDS011;5543;51.734;8.744;2023-02-04T03:19:20;3.85;;;2.53;;
10979;SDS011;5543;51.734;8.744;2023-02-04T03:21:49;1.92;;;0.82;;
10979;SDS011;5543;51.734;8.744;2023-02-04T03:24:19;9.20;;;1.73;;
10979;SDS011;5543;51.734;8.744;2023-02-04T03:26:47;1.65;;;1.45;;
10979;SDS011;5543;51.734;8.744;2023-02-04T03:29:15;3.80;;;1.23;;
10979;SDS011;5543;51.734;8.744;2023-02-04T03:31:44;6.13;;;1.40;;
10979;SDS011;5543;51.734;8.744;2023-02-04T03:34:12;2.78;;;1.13;;
10979;SDS011;5543;51.734;8.744;2023-02-04T03:36:40;4.75;;;1.45;;
10979;SDS011;5543;51.734;8.744;2023-02-04T03:39:08;6.00;;;0.80;;
10979;SDS011;5543;51.734;8.744;2023-02-04T03:41:36;2.03;;;1.08;;
10979;SDS011;5543;51.734;8.744;2023-02-04T03:44:04;7.97;;;1.15;;
10979;SDS011;5543;51.734;8.744;2023-02-04T03:46:32;3.63;;;1.05;;
10979;SDS011;5543;51.734;8.744;2023-02-04T03:49:02;4.57;;;1.38;;
10979;SDS011;5543;51.734;8.744;2023-02-04T03:51:30;7.82;;;1.70;;
10979;SDS011;5543;51.734;8.744;2023-02-04T03:53:58;1.05;;;1.00;;
10979;SDS011;5543;51.734;8.744;2023-02-04T03:56:26;2.70;;;1.13;;
10979;SDS011;5543;51.734;8.744;2023-02-04T03:58:54;7.10;;;1.05;;
10979;SDS011;5543;51.734;8.744;2023-02-04T04:01:22;11.48;;;1.10;;
10979;SDS011;5543;51.734;8.744;2023-02-04T04:03:50;4.50;;;1.10;;
10979;SDS011;5543;51.734;8.744;2023-02-04T04:06:20;4.53;;;2.15;;
10979;SDS011;5543;51.734;8.744;2023-02-04T04:08:48;3.50;;;1.15;;
10979;SDS011;5543;51.734;8.744;2023-02-04T04:11:16;3.55;;;1.00;;
10979;SDS011;5543;51.734;8.744;2023-02-04T04:13:44;17.73;;;2.17;;
10979;SDS011;5543;51.734;8.744;2023-02-04T04:16:12;3.90;;;1.50;;
10979;SDS011;5543;51.734;8.744;2023-02-04T04:18:40;3.08;;;2.20;;
10979;SDS011;5543;51.734;8.744;2023-02-04T04:21:08;16.50;;;2.92;;
10979;SDS011;5543;51.734;8.744;2023-02-04T04:23:37;8.25;;;2.88;;
10979;SDS011;5543;51.734;8.744;2023-02-04T04:26:05;7.88;;;2.17;;
10979;SDS011;5543;51.734;8.744;2023-02-04T04:28:33;4.80;;;1.73;;
10979;SDS011;5543;51.734;8.744;2023-02-04T04:31:01;6.88;;;1.95;;
10979;SDS011;5543;51.734;8.744;2023-02-04T04:33:30;7.13;;;1.63;;
10979;SDS011;5543;51.734;8.744;2023-02-04T04:35:58;9.65;;;2.65;;
10979;SDS011;5543;51.734;8.744;2023-02-04T04:38:26;4.85;;;1.40;;
10979;SDS011;5543;51.734;8.744;2023-02-04T04:40:55;4.90;;;1.55;;
10979;SDS011;5543;51.734;8.744;2023-02-04T04:43:23;3.67;;;1.50;;
10979;SDS011;5543;51.734;8.744;2023-02-04T04:45:52;7.25;;;2.38;;
10979;SDS011;5543;51.734;8.744;2023-02-04T04:48:20;1.55;;;1.42;;
10979;SDS011;5543;51.734;8.744;2023-02-04T04:50:49;5.00;;;1.50;;
10979;SDS011;5543;51.734;8.744;2023-02-04T04:53:16;6.40;;;1.85;;
10979;SDS011;5543;51.734;8.744;2023-02-04T04:55:44;6.22;;;1.40;;
10979;SDS011;5543;51.734;8.744;2023-02-04T04:58:14;5.85;;;1.67;;
10979;SDS011;5543;51.734;8.744;2023-02-04T05:00:42;3.40;;;1.73;;
10979;SDS011;5543;51.734;8.744;2023-02-04T05:03:10;2.20;;;1.65;;
10979;SDS011;5543;51.734;8.744;2023-02-04T05:05:38;3.42;;;1.83;;
10979;SDS011;5543;51.734;8.744;2023-02-04T05:08:07;7.28;;;1.85;;
10979;SDS011;5543;51.734;8.744;2023-02-04T05:10:38;1.85;;;1.27;;
10979;SDS011;5543;51.734;8.744;2023-02-04T05:13:06;5.55;;;1.48;;
10979;SDS011;5543;51.734;8.744;2023-02-04T05:15:36;5.65;;;2.33;;
10979;SDS011;5543;51.734;8.744;2023-02-04T05:18:04;3.85;;;1.52;;
10979;SDS011;5543;51.734;8.744;2023-02-04T05:20:32;5.90;;;2.60;;
10979;SDS011;5543;51.734;8.744;2023-02-04T05:23:00;3.85;;;1.23;;
10979;SDS011;5543;51.734;8.744;2023-02-04T05:25:30;3.15;;;1.33;;
10979;SDS011;5543;51.734;8.744;2023-02-04T05:27:59;3.95;;;1.73;;
10979;SDS011;5543;51.734;8.744;2023-02-04T05:30:27;5.07;;;1.58;;
10979;SDS011;5543;51.734;8.744;2023-02-04T05:32:57;5.60;;;0.90;;
10979;SDS011;5543;51.734;8.744;2023-02-04T05:35:25;1.33;;;0.88;;
10979;SDS011;5543;51.734;8.744;2023-02-04T05:37:53;2.47;;;0.85;;
10979;SDS011;5543;51.734;8.744;2023-02-04T05:40:21;4.95;;;2.88;;
10979;SDS011;5543;51.734;8.744;2023-02-04T05:42:49;3.65;;;1.13;;
10979;SDS011;5543;51.734;8.744;2023-02-04T05:45:17;7.53;;;1.05;;
10979;SDS011;5543;51.734;8.744;2023-02-04T05:47:45;2.88;;;1.05;;
10979;SDS011;5543;51.734;8.744;2023-02-04T05:50:15;6.53;;;1.60;;
10979;SDS011;5543;51.734;8.744;2023-02-04T05:52:43;9.05;;;1.20;;
10979;SDS011;5543;51.734;8.744;2023-02-04T05:55:11;2.13;;;1.40;;
10979;SDS011;5543;51.734;8.744;2023-02-04T05:57:40;5.80;;;1.75;;
10979;SDS011;5543;51.734;8.744;2023-02-04T06:00:09;3.83;;;1.10;;
10979;SDS011;5543;51.734;8.744;2023-02-04T06:02:38;5.47;;;1.50;;
10979;SDS011;5543;51.734;8.744;2023-02-04T06:05:07;1.65;;;1.00;;
10979;SDS011;5543;51.734;8.744;2023-02-04T06:07:36;4.25;;;1.20;;
10979;SDS011;5543;51.734;8.744;2023-02-04T06:10:04;7.20;;;2.33;;
10979;SDS011;5543;51.734;8.744;2023-02-04T06:12:32;2.80;;;1.35;;
10979;SDS011;5543;51.734;8.744;2023-02-04T06:15:00;2.63;;;0.90;;
10979;SDS011;5543;51.734;8.744;2023-02-04T06:17:28;2.53;;;0.80;;
10979;SDS011;5543;51.734;8.744;2023-02-04T06:19:56;3.58;;;1.80;;
10979;SDS011;5543;51.734;8.744;2023-02-04T06:22:24;3.85;;;1.33;;
10979;SDS011;5543;51.734;8.744;2023-02-04T06:24:54;1.38;;;0.82;;
10979;SDS011;5543;51.734;8.744;2023-02-04T06:27:22;6.72;;;1.23;;
10979;SDS011;5543;51.734;8.744;2023-02-04T06:29:50;3.93;;;1.10;;
10979;SDS011;5543;51.734;8.744;2023-02-04T06:32:19;5.30;;;1.48;;
10979;SDS011;5543;51.734;8.744;2023-02-04T06:34:48;6.07;;;1.70;;
10979;SDS011;5543;51.734;8.744;2023-02-04T06:37:16;0.70;;;0.70;;
10979;SDS011;5543;51.734;8.744;2023-02-04T06:39:44;2.70;;;0.90;;
10979;SDS011;5543;51.734;8.744;2023-02-04T06:42:14;2.07;;;0.70;;
10979;SDS011;5543;51.734;8.744;2023-02-04T06:44:42;3.40;;;1.40;;
10979;SDS011;5543;51.734;8.744;2023-02-04T06:47:10;3.23;;;0.60;;
10979;SDS011;5543;51.734;8.744;2023-02-04T06:49:38;3.07;;;1.17;;
10979;SDS011;5543;51.734;8.744;2023-02-04T06:52:06;1.00;;;0.87;;
10979;SDS011;5543;51.734;8.744;2023-02-04T06:54:34;0.67;;;0.67;;
10979;SDS011;5543;51.734;8.744;2023-02-04T06:57:02;1.27;;;0.97;;
10979;SDS011;5543;51.734;8.744;2023-02-04T06:59:34;3.77;;;1.53;;
10979;SDS011;5543;51.734;8.744;2023-02-04T07:02:03;6.17;;;2.23;;
10979;SDS011;5543;51.734;8.744;2023-02-04T07:04:32;6.10;;;1.07;;
10979;SDS011;5543;51.734;8.744;2023-02-04T07:07:00;0.73;;;0.73;;
10979;SDS011;5543;51.734;8.744;2023-02-04T07:09:28;7.50;;;1.50;;
10979;SDS011;5543;51.734;8.744;2023-02-04T07:11:56;1.47;;;1.37;;
10979;SDS011;5543;51.734;8.744;2023-02-04T07:14:24;1.73;;;0.90;;
10979;SDS011;5543;51.734;8.744;2023-02-04T07:16:54;2.37;;;0.70;;
10979;SDS011;5543;51.734;8.744;2023-02-04T07:19:23;1.40;;;1.03;;
10979;SDS011;5543;51.734;8.744;2023-02-04T07:21:51;6.77;;;1.17;;
10979;SDS011;5543;51.734;8.744;2023-02-04T07:24:22;3.47;;;0.70;;
10979;SDS011;5543;51.734;8.744;2023-02-04T07:26:50;2.00;;;0.70;;
10979;SDS011;5543;51.734;8.744;2023-02-04T07:29:19;1.93;;;0.93;;
10979;SDS011;5543;51.734;8.744;2023-02-04T07:31:51;4.90;;;0.87;;
10979;SDS011;5543;51.734;8.744;2023-02-04T07:34:20;0.63;;;0.63;;
10979;SDS011;5543;51.734;8.744;2023-02-04T07:36:48;0.53;;;0.50;;
10979;SDS011;5543;51.734;8.744;2023-02-04T07:39:17;1.23;;;1.00;;
10979;SDS011;5543;51.734;8.744;2023-02-04T07:41:45;1.23;;;0.73;;
10979;SDS011;5543;51.734;8.744;2023-02-04T07:44:13;1.43;;;1.03;;
10979;SDS011;5543;51.734;8.744;2023-02-04T07:46:41;6.93;;;1.10;;
10979;SDS011;5543;51.734;8.744;2023-02-04T07:49:09;2.83;;;0.83;;
10979;SDS011;5543;51.734;8.744;2023-02-04T07:51:39;6.17;;;1.43;;
10979;SDS011;5543;51.734;8.744;2023-02-04T07:54:07;1.47;;;0.97;;
10979;SDS011;5543;51.734;8.744;2023-02-04T07:56:35;1.07;;;0.60;;
10979;SDS011;5543;51.734;8.744;2023-02-04T07:59:03;2.37;;;0.80;;
10979;SDS011;5543;51.734;8.744;2023-02-04T08:01:31;3.10;;;1.60;;
10979;SDS011;5543;51.734;8.744;2023-02-04T08:04:00;2.10;;;0.60;;
10979;SDS011;5543;51.734;8.744;2023-02-04T08:06:28;1.37;;;1.03;;
10979;SDS011;5543;51.734;8.744;2023-02-04T08:08:59;2.87;;;1.27;;
10979;SDS011;5543;51.734;8.744;2023-02-04T08:11:27;0.93;;;0.87;;
10979;SDS011;5543;51.734;8.744;2023-02-04T08:13:55;5.67;;;1.50;;
10979;SDS011;5543;51.734;8.744;2023-02-04T08:16:23;3.30;;;1.23;;
10979;SDS011;5543;51.734;8.744;2023-02-04T08:18:51;3.25;;;1.15;;
10979;SDS011;5543;51.734;8.744;2023-02-04T08:21:20;2.10;;;1.08;;
10979;SDS011;5543;51.734;8.744;2023-02-04T08:23:48;1.98;;;1.00;;
10979;SDS011;5543;51.734;8.744;2023-02-04T08:26:17;3.17;;;1.30;;
10979;SDS011;5543;51.734;8.744;2023-02-04T08:28:45;3.65;;;0.93;;
10979;SDS011;5543;51.734;8.744;2023-02-04T08:31:13;1.75;;;1.42;;
10979;SDS011;5543;51.734;8.744;2023-02-04T08:33:41;2.50;;;1.65;;
10979;SDS011;5543;51.734;8.744;2023-02-04T08:36:10;3.40;;;2.15;;
10979;SDS011;5543;51.734;8.744;2023-02-04T08:38:38;6.35;;;1.85;;
10979;SDS011;5543;51.734;8.744;2023-02-04T08:41:06;1.42;;;0.98;;
10979;SDS011;5543;51.734;8.744;2023-02-04T08:43:36;2.95;;;2.15;;
10979;SDS011;5543;51.734;8.744;2023-02-04T08:46:04;1.52;;;1.30;;
10979;SDS011;5543;51.734;8.744;2023-02-04T08:48:32;2.28;;;1.33;;
10979;SDS011;5543;51.734;8.744;2023-02-04T08:51:00;1.02;;;1.00;;
10979;SDS011;5543;51.734;8.744;2023-02-04T08:53:28;1.23;;;1.10;;
10979;SDS011;5543;51.734;8.744;2023-02-04T08:55:56;3.55;;;1.60;;
10979;SDS011;5543;51.734;8.744;2023-02-04T08:58:24;1.80;;;1.17;;
10979;SDS011;5543;51.734;8.744;2023-02-04T09:00:53;2.95;;;1.15;;
10979;SDS011;5543;51.734;8.744;2023-02-04T09:03:22;1.85;;;1.05;;
10979;SDS011;5543;51.734;8.744;2023-02-04T09:05:50;1.20;;;1.10;;
10979;SDS011;5543;51.734;8.744;2023-02-04T09:08:18;1.55;;;1.10;;
10979;SDS011;5543;51.734;8.744;2023-02-04T09:10:46;1.05;;;0.95;;
10979;SDS011;5543;51.734;8.744;2023-02-04T09:13:14;2.20;;;1.08;;
10979;SDS011;5543;51.734;8.744;2023-02-04T09:15:42;1.13;;;1.02;;
10979;SDS011;5543;51.734;8.744;2023-02-04T09:18:11;0.90;;;0.90;;
10979;SDS011;5543;51.734;8.744;2023-02-04T09:20:42;1.15;;;1.00;;
10979;SDS011;5543;51.734;8.744;2023-02-04T09:23:10;1.90;;;1.73;;
10979;SDS011;5543;51.734;8.744;2023-02-04T09:25:39;2.92;;;2.42;;
10979;SDS011;5543;51.734;8.744;2023-02-04T09:28:08;1.08;;;0.98;;
10979;SDS011;5543;51.734;8.744;2023-02-04T09:30:38;1.48;;;1.00;;
10979;SDS011;5543;51.734;8.744;2023-02-04T09:33:07;0.70;;;0.70;;
10979;SDS011;5543;51.734;8.744;2023-02-04T09:35:38;1.65;;;1.00;;
10979;SDS011;5543;51.734;8.744;2023-02-04T09:38:06;1.23;;;0.80;;
10979;SDS011;5543;51.734;8.744;2023-02-04T09:40:35;3.22;;;1.02;;
10979;SDS011;5543;51.734;8.744;2023-02-04T09:43:08;1.08;;;0.80;;
10979;SDS011;5543;51.734;8.744;2023-02-04T09:45:39;0.88;;;0.88;;
10979;SDS011;5543;51.734;8.744;2023-02-04T09:48:08;0.70;;;0.70;;
10979;SDS011;5543;51.734;8.744;2023-02-04T09:50:41;0.73;;;0.73;;
10979;SDS011;5543;51.734;8.744;2023-02-04T09:53:10;1.55;;;0.70;;
10979;SDS011;5543;51.734;8.744;2023-02-04T09:55:42;1.10;;;0.88;;
10979;SDS011;5543;51.734;8.744;2023-02-04T09:58:12;1.50;;;1.30;;
10979;SDS011;5543;51.734;8.744;2023-02-04T10:00:42;1.13;;;0.88;;
10979;SDS011;5543;51.734;8.744;2023-02-04T10:03:13;2.55;;;1.10;;
10979;SDS011;5543;51.734;8.744;2023-02-04T10:05:45;1.00;;;0.80;;
10979;SDS011;5543;51.734;8.744;2023-02-04T10:08:14;1.27;;;0.95;;
10979;SDS011;5543;51.734;8.744;2023-02-04T10:10:43;3.70;;;3.17;;
10979;SDS011;5543;51.734;8.744;2023-02-04T10:13:15;1.48;;;1.33;;
10979;SDS011;5543;51.734;8.744;2023-02-04T10:15:45;2.05;;;0.80;;
10979;SDS011;5543;51.734;8.744;2023-02-04T10:18:16;1.20;;;0.82;;
10979;SDS011;5543;51.734;8.744;2023-02-04T10:20:51;0.90;;;0.80;;
10979;SDS011;5543;51.734;8.744;2023-02-04T10:23:24;1.98;;;1.25;;
10979;SDS011;5543;51.734;8.744;2023-02-04T10:25:52;2.38;;;1.08;;
10979;SDS011;5543;51.734;8.744;2023-02-04T10:28:20;2.35;;;1.08;;
10979;SDS011;5543;51.734;8.744;2023-02-04T10:30:58;1.00;;;0.90;;
10979;SDS011;5543;51.734;8.744;2023-02-04T10:33:26;1.75;;;0.98;;
10979;SDS011;5543;51.734;8.744;2023-02-04T10:35:56;1.13;;;0.80;;
10979;SDS011;5543;51.734;8.744;2023-02-04T10:38:24;0.82;;;0.82;;
10979;SDS011;5543;51.734;8.744;2023-02-04T10:40:59;2.15;;;1.20;;
10979;SDS011;5543;51.734;8.744;2023-02-04T10:43:27;1.00;;;1.00;;
10979;SDS011;5543;51.734;8.744;2023-02-04T10:45:56;0.55;;;0.55;;
10979;SDS011;5543;51.734;8.744;2023-02-04T10:48:25;0.65;;;0.65;;
10979;SDS011;5543;51.734;8.744;2023-02-04T10:50:56;0.70;;;0.70;;
10979;SDS011;5543;51.734;8.744;2023-02-04T10:53:24;1.92;;;0.75;;
10979;SDS011;5543;51.734;8.744;2023-02-04T10:56:13;0.75;;;0.60;;
10979;SDS011;5543;51.734;8.744;2023-02-04T10:58:43;0.55;;;0.52;;
10979;SDS011;5543;51.734;8.744;2023-02-04T11:01:11;0.90;;;0.55;;
10979;SDS011;5543;51.734;8.744;2023-02-04T11:03:41;0.73;;;0.68;;
10979;SDS011;5543;51.734;8.744;2023-02-04T11:06:16;1.30;;;0.80;;
10979;SDS011;5543;51.734;8.744;2023-02-04T11:08:48;1.15;;;0.68;;
10979;SDS011;5543;51.734;8.744;2023-02-04T11:11:21;0.85;;;0.85;;
10979;SDS011;5543;51.734;8.744;2023-02-04T11:13:58;1.33;;;1.23;;
10979;SDS011;5543;51.734;8.744;2023-02-04T11:16:28;0.52;;;0.52;;
10979;SDS011;5543;51.734;8.744;2023-02-04T11:19:01;0.68;;;0.68;;
10979;SDS011;5543;51.734;8.744;2023-02-04T11:21:42;1.35;;;0.90;;
10979;SDS011;5543;51.734;8.744;2023-02-04T11:24:22;0.70;;;0.60;;
10979;SDS011;5543;51.734;8.744;2023-02-04T11:26:51;0.68;;;0.60;;
10979;SDS011;5543;51.734;8.744;2023-02-04T11:29:31;0.85;;;0.80;;
10979;SDS011;5543;51.734;8.744;2023-02-04T11:32:04;0.95;;;0.63;;
10979;SDS011;5543;51.734;8.744;2023-02-04T11:34:44;0.68;;;0.68;;
10979;SDS011;5543;51.734;8.744;2023-02-04T11:37:17;0.73;;;0.73;;
10979;SDS011;5543;51.734;8.744;2023-02-04T11:39:56;0.88;;;0.73;;
10979;SDS011;5543;51.734;8.744;2023-02-04T11:42:26;0.73;;;0.60;;
10979;SDS011;5543;51.734;8.744;2023-02-04T11:44:59;0.88;;;0.70;;
10979;SDS011;5543;51.734;8.744;2023-02-04T11:47:32;0.50;;;0.50;;
10979;SDS011;5543;51.734;8.744;2023-02-04T11:50:03;0.77;;;0.77;;
10979;SDS011;5543;51.734;8.744;2023-02-04T11:52:40;0.88;;;0.70;;
10979;SDS011;5543;51.734;8.744;2023-02-04T11:55:09;1.75;;;0.80;;
10979;SDS011;5543;51.734;8.744;2023-02-04T11:57:38;0.80;;;0.70;;
10979;SDS011;5543;51.734;8.744;2023-02-04T12:00:11;1.00;;;0.73;;
10979;SDS011;5543;51.734;8.744;2023-02-04T12:02:43;0.43;;;0.30;;
10979;SDS011;5543;51.734;8.744;2023-02-04T12:05:13;0.30;;;0.30;;
10979;SDS011;5543;51.734;8.744;2023-02-04T12:07:45;0.73;;;0.60;;
10979;SDS011;5543;51.734;8.744;2023-02-04T12:10:22;2.45;;;0.88;;
10979;SDS011;5543;51.734;8.744;2023-02-04T12:12:52;0.52;;;0.47;;
10979;SDS011;5543;51.734;8.744;2023-02-04T12:15:24;0.82;;;0.60;;
10979;SDS011;5543;51.734;8.744;2023-02-04T12:18:02;0.98;;;0.70;;
10979;SDS011;5543;51.734;8.744;2023-02-04T12:20:32;0.80;;;0.57;;
10979;SDS011;5543;51.734;8.744;2023-02-04T12:23:02;0.45;;;0.45;;
10979;SDS011;5543;51.734;8.744;2023-02-04T12:25:30;0.60;;;0.52;;
10979;SDS011;5543;51.734;8.744;2023-02-04T12:27:59;1.25;;;0.60;;
10979;SDS011;5543;51.734;8.744;2023-02-04T12:30:27;0.98;;;0.70;;
10979;SDS011;5543;51.734;8.744;2023-02-04T12:32:55;2.70;;;0.90;;
10979;SDS011;5543;51.734;8.744;2023-02-04T12:35:23;0.52;;;0.52;;
10979;SDS011;5543;51.734;8.744;2023-02-04T12:37:52;0.73;;;0.70;;
10979;SDS011;5543;51.734;8.744;2023-02-04T12:40:21;2.50;;;0.65;;
10979;SDS011;5543;51.734;8.744;2023-02-04T12:42:49;3.80;;;1.75;;
10979;SDS011;5543;51.734;8.744;2023-02-04T12:45:18;4.53;;;1.00;;
10979;SDS011;5543;51.734;8.744;2023-02-04T12:47:46;0.50;;;0.50;;
10979;SDS011;5543;51.734;8.744;2023-02-04T12:52:48;0.60;;;0.60;;
10979;SDS011;5543;51.734;8.744;2023-02-04T12:55:20;0.70;;;0.70;;
10979;SDS011;5543;51.734;8.744;2023-02-04T12:57:50;1.90;;;0.60;;
10979;SDS011;5543;51.734;8.744;2023-02-04T13:00:19;1.00;;;0.73;;
10979;SDS011;5543;51.734;8.744;2023-02-04T13:02:49;0.63;;;0.63;;
10979;SDS011;5543;51.734;8.744;2023-02-04T13:05:17;0.52;;;0.52;;
10979;SDS011;5543;51.734;8.744;2023-02-04T13:07:45;0.68;;;0.68;;
10979;SDS011;5543;51.734;8.744;2023-02-04T13:10:13;0.60;;;0.60;;
10979;SDS011;5543;51.734;8.744;2023-02-04T13:12:43;0.60;;;0.60;;
10979;SDS011;5543;51.734;8.744;2023-02-04T13:15:11;1.73;;;0.50;;
10979;SDS011;5543;51.734;8.744;2023-02-04T13:17:42;1.13;;;0.77;;
10979;SDS011;5543;51.734;8.744;2023-02-04T13:20:10;1.48;;;0.22;;
10979;SDS011;5543;51.734;8.744;2023-02-04T13:22:39;0.98;;;0.73;;
10979;SDS011;5543;51.734;8.744;2023-02-04T13:25:07;0.60;;;0.50;;
10979;SDS011;5543;51.734;8.744;2023-02-04T13:27:36;2.35;;;1.05;;
10979;SDS011;5543;51.734;8.744;2023-02-04T13:30:07;0.57;;;0.43;;
10979;SDS011;5543;51.734;8.744;2023-02-04T13:32:38;0.73;;;0.73;;
10979;SDS011;5543;51.734;8.744;2023-02-04T13:35:07;1.42;;;0.50;;
10979;SDS011;5543;51.734;8.744;2023-02-04T13:37:35;1.90;;;1.00;;
10979;SDS011;5543;51.734;8.744;2023-02-04T13:40:04;0.57;;;0.57;;
10979;SDS011;5543;51.734;8.744;2023-02-04T13:42:33;0.63;;;0.43;;
10979;SDS011;5543;51.734;8.744;2023-02-04T13:45:01;0.50;;;0.50;;
10979;SDS011;5543;51.734;8.744;2023-02-04T13:47:31;0.65;;;0.65;;
10979;SDS011;5543;51.734;8.744;2023-02-04T13:49:59;2.50;;;1.10;;
10979;SDS011;5543;51.734;8.744;2023-02-04T13:52:27;1.38;;;0.70;;
10979;SDS011;5543;51.734;8.744;2023-02-04T13:54:56;2.78;;;0.70;;
10979;SDS011;5543;51.734;8.744;2023-02-04T13:57:24;2.85;;;0.82;;
10979;SDS011;5543;51.734;8.744;2023-02-04T13:59:52;1.38;;;0.60;;
10979;SDS011;5543;51.734;8.744;2023-02-04T14:02:20;1.05;;;0.50;;
10979;SDS011;5543;51.734;8.744;2023-02-04T14:04:50;0.85;;;0.75;;
10979;SDS011;5543;51.734;8.744;2023-02-04T14:07:19;1.10;;;0.80;;
10979;SDS011;5543;51.734;8.744;2023-02-04T14:09:47;0.57;;;0.40;;
10979;SDS011;5543;51.734;8.744;2023-02-04T14:12:15;0.90;;;0.77;;
10979;SDS011;5543;51.734;8.744;2023-02-04T14:14:43;1.00;;;0.70;;
10979;SDS011;5543;51.734;8.744;2023-02-04T14:17:11;0.77;;;0.60;;
10979;SDS011;5543;51.734;8.744;2023-02-04T14:19:39;0.75;;;0.50;;
10979;SDS011;5543;51.734;8.744;2023-02-04T14:22:08;1.40;;;0.90;;
10979;SDS011;5543;51.734;8.744;2023-02-04T14:24:38;0.70;;;0.70;;
10979;SDS011;5543;51.734;8.744;2023-02-04T14:27:08;1.02;;;0.82;;
10979;SDS011;5543;51.734;8.744;2023-02-04T14:29:37;1.55;;;0.85;;
10979;SDS011;5543;51.734;8.744;2023-02-04T14:32:05;0.88;;;0.50;;
10979;SDS011;5543;51.734;8.744;2023-02-04T14:34:33;3.80;;;0.82;;
10979;SDS011;5543;51.734;8.744;2023-02-04T14:37:01;3.70;;;1.13;;
10979;SDS011;5543;51.734;8.744;2023-02-04T14:39:31;0.57;;;0.50;;
10979;SDS011;5543;51.734;8.744;2023-02-04T14:41:59;0.75;;;0.75;;
10979;SDS011;5543;51.734;8.744;2023-02-04T14:44:29;0.88;;;0.52;;
10979;SDS011;5543;51.734;8.744;2023-02-04T14:46:57;0.60;;;0.60;;
10979;SDS011;5543;51.734;8.744;2023-02-04T14:49:26;1.15;;;1.00;;
10979;SDS011;5543;51.734;8.744;2023-02-04T14:51:54;0.68;;;0.50;;
10979;SDS011;5543;51.734;8.744;2023-02-04T14:54:22;0.90;;;0.80;;
10979;SDS011;5543;51.734;8.744;2023-02-04T14:56:52;0.93;;;0.93;;
10979;SDS011;5543;51.734;8.744;2023-02-04T14:59:20;2.05;;;0.60;;
10979;SDS011;5543;51.734;8.744;2023-02-04T15:01:48;1.15;;;0.77;;
10979;SDS011;5543;51.734;8.744;2023-02-04T15:04:16;0.90;;;0.90;;
10979;SDS011;5543;51.734;8.744;2023-02-04T15:06:44;1.05;;;0.95;;
10979;SDS011;5543;51.734;8.744;2023-02-04T15:09:13;0.75;;;0.75;;
10979;SDS011;5543;51.734;8.744;2023-02-04T15:11:41;0.50;;;0.50;;
10979;SDS011;5543;51.734;8.744;2023-02-04T15:14:10;1.10;;;0.90;;